createdAt,value
2023-07-16T00:04:47.519Z,23.28
2023-07-16T00:09:49.384Z,23.20
2023-07-16T00:14:51.228Z,23.12
2023-07-16T00:19:53.064Z,23.08
2023-07-16T00:24:54.989Z,23.02
2023-07-16T00:29:56.844Z,22.95
2023-07-16T00:34:58.716Z,22.88
2023-07-16T00:40:00.795Z,22.79
2023-07-16T00:45:03.470Z,22.68
2023-07-16T00:50:06.190Z,22.59
2023-07-16T00:55:09.331Z,22.49
2023-07-16T01:00:12.478Z,22.39
2023-07-16T01:05:14.477Z,22.31
2023-07-16T01:10:17.036Z,22.22
2023-07-16T01:15:20.843Z,22.12
2023-07-16T01:20:23.014Z,22.02
2023-07-16T01:25:34.152Z,21.92
2023-07-16T01:30:40.693Z,21.80
2023-07-16T01:35:44.547Z,21.68
2023-07-16T01:40:46.379Z,21.58
2023-07-16T01:45:48.425Z,21.50
2023-07-16T01:50:50.247Z,21.41
2023-07-16T01:55:52.302Z,21.32
2023-07-16T02:00:54.280Z,21.19
2023-07-16T02:05:56.191Z,21.02
2023-07-16T02:10:58.230Z,20.86
2023-07-16T02:16:00.193Z,20.69
2023-07-16T02:21:03.300Z,20.52
2023-07-16T02:26:05.404Z,20.36
2023-07-16T02:31:07.313Z,20.24
2023-07-16T02:36:09.252Z,20.16
2023-07-16T02:41:11.026Z,20.02
2023-07-16T02:46:12.833Z,19.90
2023-07-16T02:51:14.595Z,19.81
2023-07-16T02:56:17.836Z,19.79
2023-07-16T03:01:20.150Z,19.81
2023-07-16T03:06:23.022Z,19.86
2023-07-16T03:11:26.667Z,19.96
2023-07-16T03:16:29.158Z,20.16
2023-07-16T03:21:31.216Z,21.12
2023-07-16T03:26:33.075Z,22.19
2023-07-16T03:31:36.322Z,22.99
2023-07-16T03:36:38.329Z,23.09
2023-07-16T03:41:40.443Z,23.30
2023-07-16T03:46:42.448Z,24.80
2023-07-16T03:51:44.301Z,26.78
2023-07-16T03:56:46.129Z,28.22
2023-07-16T04:07:11.018Z,30.62
2023-07-16T04:12:12.829Z,31.77
2023-07-16T04:17:14.900Z,32.46
2023-07-16T04:22:16.996Z,32.93
2023-07-16T04:27:19.648Z,32.99
2023-07-16T04:32:21.504Z,32.76
2023-07-16T04:37:23.527Z,32.90
2023-07-16T04:42:25.405Z,33.86
2023-07-16T04:47:27.233Z,35.01
2023-07-16T04:52:29.053Z,36.29
2023-07-16T04:57:30.916Z,37.51
2023-07-16T05:02:33.844Z,38.60
2023-07-16T05:07:35.684Z,39.20
2023-07-16T05:12:37.914Z,39.52
2023-07-16T05:17:40.376Z,38.92
2023-07-16T05:22:42.525Z,38.86
2023-07-16T05:27:44.332Z,39.16
2023-07-16T05:32:46.255Z,39.96
2023-07-16T05:37:48.041Z,39.86
2023-07-16T05:42:49.997Z,38.52
2023-07-16T05:47:51.830Z,37.61
2023-07-16T05:52:53.772Z,38.05
2023-07-16T05:57:55.638Z,39.07
2023-07-16T06:02:57.708Z,39.51
2023-07-16T06:07:59.903Z,39.22
2023-07-16T06:13:01.686Z,39.34
2023-07-16T06:18:04.192Z,39.22
2023-07-16T06:23:06.283Z,38.91
2023-07-16T06:28:08.155Z,38.53
2023-07-16T06:33:10.008Z,38.34
2023-07-16T06:38:11.870Z,37.24
2023-07-16T06:43:13.745Z,35.81
2023-07-16T06:48:25.865Z,34.89
2023-07-16T06:53:46.443Z,34.58
2023-07-16T06:58:48.323Z,34.02
2023-07-16T07:03:50.363Z,33.77
2023-07-16T07:08:52.279Z,33.37
2023-07-16T07:13:54.250Z,32.73
2023-07-16T07:18:58.204Z,32.55
2023-07-16T07:24:00.035Z,32.88
2023-07-16T07:29:02.027Z,32.99
2023-07-16T07:34:03.923Z,33.09
2023-07-16T07:39:07.338Z,32.95
2023-07-16T07:44:09.122Z,32.92
2023-07-16T07:49:11.165Z,33.19
2023-07-16T07:54:12.908Z,33.23
2023-07-16T07:59:14.995Z,33.30
2023-07-16T08:04:16.933Z,33.16
2023-07-16T08:09:18.994Z,33.23
2023-07-16T08:14:20.913Z,33.40
2023-07-16T08:19:22.866Z,33.92
2023-07-16T08:24:26.382Z,34.21
2023-07-16T08:29:28.345Z,34.35
2023-07-16T08:34:30.192Z,33.74
2023-07-16T08:39:32.834Z,33.53
2023-07-16T08:44:35.271Z,33.56
2023-07-16T08:49:40.420Z,33.92
2023-07-16T08:54:46.456Z,33.88
2023-07-16T08:59:50.322Z,33.89
2023-07-16T09:04:56.102Z,34.15
2023-07-16T09:10:01.421Z,34.64
2023-07-16T09:15:05.335Z,35.14
2023-07-16T09:20:08.252Z,35.50
2023-07-16T09:25:11.407Z,35.25
2023-07-16T09:30:17.267Z,35.09
2023-07-16T09:35:19.279Z,34.92
2023-07-16T09:40:21.172Z,35.37
2023-07-16T09:45:23.430Z,36.10
2023-07-16T09:50:26.415Z,36.70
2023-07-16T09:55:29.069Z,36.94
2023-07-16T10:00:33.804Z,36.15
2023-07-16T10:05:38.833Z,35.22
2023-07-16T10:10:44.168Z,34.66
2023-07-16T10:15:57.946Z,34.04
2023-07-16T10:21:07.414Z,33.98
2023-07-16T10:26:13.597Z,34.21
2023-07-16T10:31:26.175Z,34.20
2023-07-16T10:36:28.583Z,34.56
2023-07-16T10:41:32.383Z,34.70
2023-07-16T10:46:34.832Z,35.06
2023-07-16T10:51:37.169Z,35.47
2023-07-16T10:56:39.405Z,35.57
2023-07-16T11:01:41.297Z,35.89
2023-07-16T11:06:43.234Z,36.37
2023-07-16T11:11:45.310Z,36.63
2023-07-16T11:16:48.138Z,36.93
2023-07-16T11:21:49.949Z,36.85
2023-07-16T11:26:52.875Z,36.68
2023-07-16T11:31:55.019Z,37.04
2023-07-16T11:37:07.421Z,37.42
2023-07-16T11:42:09.415Z,37.07
2023-07-16T11:47:11.331Z,37.39
2023-07-16T11:52:13.610Z,37.86
2023-07-16T11:57:15.446Z,37.60
2023-07-16T12:02:17.749Z,37.30
2023-07-16T12:07:34.330Z,36.97
2023-07-16T12:12:39.671Z,36.86
2023-07-16T12:17:41.726Z,36.83
2023-07-16T12:22:43.808Z,36.80
2023-07-16T12:27:45.700Z,36.74
2023-07-16T12:32:47.563Z,36.65
2023-07-16T12:37:49.486Z,37.04
2023-07-16T12:42:51.372Z,37.65
2023-07-16T12:47:53.324Z,38.67
2023-07-16T12:52:55.341Z,39.60
2023-07-16T12:57:57.185Z,40.16
2023-07-16T13:02:59.152Z,40.64
2023-07-16T13:08:01.274Z,41.14
2023-07-16T13:13:04.638Z,41.51
2023-07-16T13:18:06.524Z,41.33
2023-07-16T13:23:09.771Z,41.17
2023-07-16T13:28:11.866Z,41.81
2023-07-16T13:33:13.696Z,42.18
2023-07-16T13:38:15.830Z,42.56
2023-07-16T13:43:17.625Z,42.14
2023-07-16T13:48:19.577Z,41.88
2023-07-16T13:53:21.631Z,40.98
2023-07-16T13:58:23.565Z,39.75
2023-07-16T14:03:25.562Z,38.82
2023-07-16T14:08:28.983Z,38.13
2023-07-16T14:13:31.270Z,37.43
2023-07-16T14:18:33.106Z,36.90
2023-07-16T14:23:35.158Z,36.38
2023-07-16T14:28:37.214Z,35.94
2023-07-16T14:33:39.710Z,35.98
2023-07-16T14:38:41.609Z,35.90
2023-07-16T14:43:44.106Z,35.51
2023-07-16T14:48:47.038Z,34.96
2023-07-16T14:53:48.947Z,34.61
2023-07-16T14:58:51.000Z,34.08
2023-07-16T15:03:53.149Z,33.61
2023-07-16T15:08:55.090Z,33.36
2023-07-16T15:13:56.878Z,33.73
2023-07-16T15:18:58.741Z,34.32
2023-07-16T15:24:00.726Z,34.53
2023-07-16T15:29:02.613Z,34.41
2023-07-16T15:34:04.517Z,34.25
2023-07-16T15:39:07.649Z,33.97
2023-07-16T15:44:09.474Z,33.94
2023-07-16T15:49:12.129Z,34.06
2023-07-16T15:54:14.293Z,34.78
2023-07-16T15:59:16.152Z,35.84
2023-07-16T16:04:18.031Z,36.65
2023-07-16T16:09:26.097Z,37.31
2023-07-16T16:14:32.965Z,37.67
2023-07-16T16:19:35.705Z,37.46
2023-07-16T16:24:38.022Z,37.52
2023-07-16T16:29:39.854Z,37.30
2023-07-16T16:34:41.697Z,36.99
2023-07-16T16:39:44.099Z,36.00
2023-07-16T16:44:45.901Z,34.91
2023-07-16T16:49:47.935Z,34.35
2023-07-16T16:54:49.808Z,33.86
2023-07-16T16:59:52.385Z,33.34
2023-07-16T17:04:55.793Z,32.67
2023-07-16T17:09:57.936Z,32.24
2023-07-16T17:15:00.106Z,32.50
2023-07-16T17:20:02.212Z,32.68
2023-07-16T17:25:06.782Z,32.53
2023-07-16T17:30:09.625Z,32.23
2023-07-16T17:35:11.535Z,31.57
2023-07-16T17:40:15.870Z,31.27
2023-07-16T17:45:17.798Z,30.87
2023-07-16T17:50:19.963Z,30.27
2023-07-16T17:55:21.916Z,29.74
2023-07-16T18:00:25.685Z,29.32
2023-07-16T18:05:28.142Z,28.89
2023-07-16T18:10:30.429Z,28.47
2023-07-16T18:15:32.580Z,28.13
2023-07-16T18:20:34.460Z,27.81
2023-07-16T18:25:36.796Z,27.49
2023-07-16T18:30:38.657Z,27.22
2023-07-16T18:35:41.004Z,26.94
2023-07-16T18:40:43.131Z,26.70
2023-07-16T18:45:45.557Z,26.50
2023-07-16T18:50:47.539Z,26.44
2023-07-16T18:55:49.515Z,26.70
2023-07-16T19:00:54.627Z,26.83
2023-07-16T19:05:56.515Z,26.85
2023-07-16T19:10:58.401Z,26.80
2023-07-16T19:16:00.380Z,26.66
2023-07-16T19:21:02.208Z,26.53
2023-07-16T19:26:03.987Z,26.38
2023-07-16T19:31:06.552Z,26.22
2023-07-16T19:36:14.729Z,26.04
2023-07-16T19:41:17.266Z,25.80
2023-07-16T19:46:19.567Z,25.59
2023-07-16T19:51:21.744Z,25.34
2023-07-16T19:56:23.968Z,25.10
2023-07-16T20:01:26.081Z,24.88
2023-07-16T20:06:28.304Z,24.71
2023-07-16T20:11:30.107Z,24.56
2023-07-16T20:16:33.375Z,24.44
2023-07-16T20:21:35.321Z,24.26
2023-07-16T20:26:37.126Z,24.03
2023-07-16T20:31:39.600Z,23.85
2023-07-16T20:36:44.129Z,23.72
2023-07-16T20:41:46.486Z,23.53
2023-07-16T20:46:48.578Z,23.30
2023-07-16T20:51:51.379Z,23.23
2023-07-16T20:56:56.173Z,23.17
2023-07-16T21:01:58.485Z,23.05
2023-07-16T21:07:00.345Z,22.96
2023-07-16T21:12:02.319Z,22.90
2023-07-16T21:17:04.668Z,22.83
2023-07-16T21:22:06.996Z,22.75
2023-07-16T21:27:10.171Z,22.70
2023-07-16T21:32:12.724Z,22.65
2023-07-16T21:37:35.160Z,22.60
2023-07-16T21:42:37.078Z,22.52
2023-07-16T21:47:39.008Z,22.47
2023-07-16T21:52:41.312Z,22.42
2023-07-16T21:57:43.368Z,22.34
2023-07-16T22:02:45.229Z,22.28
2023-07-16T22:07:49.308Z,22.20
2023-07-16T22:12:51.135Z,22.14
2023-07-16T22:17:54.644Z,22.14
2023-07-16T22:22:56.650Z,22.11
2023-07-16T22:27:58.617Z,22.10
2023-07-16T22:33:00.397Z,22.09
2023-07-16T22:38:02.220Z,22.04
2023-07-16T22:43:04.742Z,22.00
2023-07-16T22:48:07.119Z,21.95
2023-07-16T22:53:09.061Z,21.86
2023-07-16T22:58:11.385Z,21.75
2023-07-16T23:03:14.745Z,21.67
2023-07-16T23:08:17.327Z,21.58
2023-07-16T23:13:20.996Z,21.49
2023-07-16T23:18:25.754Z,21.43
2023-07-16T23:23:27.836Z,21.38
2023-07-16T23:28:29.730Z,21.33
2023-07-16T23:33:33.433Z,21.21
2023-07-16T23:38:55.171Z,21.14
2023-07-16T23:43:57.173Z,21.12
2023-07-16T23:48:59.408Z,21.11
2023-07-16T23:54:16.327Z,21.08
2023-07-16T23:59:24.261Z,21.02
